sensor_id;sensor_type;location;lat;lon;timestamp;P1;durP1;ratioP1;P2;durP2;ratioP2
5704;SDS011;2877;48.238;11.160;2023-03-16T00:01:18;2.33;;;2.10;;
5704;SDS011;2877;48.238;11.160;2023-03-16T00:03:44;3.33;;;2.37;;
5704;SDS011;2877;48.238;11.160;2023-03-16T00:06:09;3.97;;;3.20;;
5704;SDS011;2877;48.238;11.160;2023-03-16T00:08:35;3.73;;;3.10;;
5704;SDS011;2877;48.238;11.160;2023-03-16T00:11:01;3.53;;;2.90;;
5704;SDS011;2877;48.238;11.160;2023-03-16T00:13:27;2.77;;;2.50;;
5704;SDS011;2877;48.238;11.160;2023-03-16T00:18:23;3.63;;;2.37;;
5704;SDS011;2877;48.238;11.160;2023-03-16T00:20:54;2.77;;;2.57;;
5704;SDS011;2877;48.238;11.160;2023-03-16T00:23:22;2.00;;;1.90;;
5704;SDS011;2877;48.238;11.160;2023-03-16T00:26:00;6.00;;;2.70;;
5704;SDS011;2877;48.238;11.160;2023-03-16T00:28:28;2.90;;;2.20;;
5704;SDS011;2877;48.238;11.160;2023-03-16T00:31:05;3.70;;;2.40;;
5704;SDS011;2877;48.238;11.160;2023-03-16T00:33:32;3.20;;;2.60;;
5704;SDS011;2877;48.238;11.160;2023-03-16T00:35:59;3.13;;;2.23;;
5704;SDS011;2877;48.238;11.160;2023-03-16T00:38:29;3.90;;;2.90;;
5704;SDS011;2877;48.238;11.160;2023-03-16T00:40:56;3.07;;;2.70;;
5704;SDS011;2877;48.238;11.160;2023-03-16T00:43:22;5.57;;;3.30;;
5704;SDS011;2877;48.238;11.160;2023-03-16T00:45:51;3.40;;;3.10;;
5704;SDS011;2877;48.238;11.160;2023-03-16T00:48:22;4.10;;;2.83;;
5704;SDS011;2877;48.238;11.160;2023-03-16T00:50:48;2.77;;;2.47;;
5704;SDS011;2877;48.238;11.160;2023-03-16T00:53:14;3.40;;;2.57;;
5704;SDS011;2877;48.238;11.160;2023-03-16T00:55:39;2.93;;;2.60;;
5704;SDS011;2877;48.238;11.160;2023-03-16T00:58:05;3.57;;;2.97;;
5704;SDS011;2877;48.238;11.160;2023-03-16T01:00:31;4.33;;;3.00;;
5704;SDS011;2877;48.238;11.160;2023-03-16T01:02:57;4.87;;;3.00;;
5704;SDS011;2877;48.238;11.160;2023-03-16T01:05:23;4.03;;;2.57;;
5704;SDS011;2877;48.238;11.160;2023-03-16T01:07:48;3.00;;;2.57;;
5704;SDS011;2877;48.238;11.160;2023-03-16T01:10:16;4.13;;;2.97;;
5704;SDS011;2877;48.238;11.160;2023-03-16T01:12:41;2.13;;;2.03;;
5704;SDS011;2877;48.238;11.160;2023-03-16T01:15:09;2.73;;;2.53;;
5704;SDS011;2877;48.238;11.160;2023-03-16T01:17:35;3.73;;;2.80;;
5704;SDS011;2877;48.238;11.160;2023-03-16T01:20:00;7.10;;;2.90;;
5704;SDS011;2877;48.238;11.160;2023-03-16T01:22:26;5.83;;;2.50;;
5704;SDS011;2877;48.238;11.160;2023-03-16T01:24:52;3.90;;;2.57;;
5704;SDS011;2877;48.238;11.160;2023-03-16T01:27:18;3.37;;;2.90;;
5704;SDS011;2877;48.238;11.160;2023-03-16T01:29:43;2.40;;;2.20;;
5704;SDS011;2877;48.238;11.160;2023-03-16T01:32:09;2.30;;;2.17;;
5704;SDS011;2877;48.238;11.160;2023-03-16T01:34:36;5.10;;;2.30;;
5704;SDS011;2877;48.238;11.160;2023-03-16T01:37:01;3.10;;;2.43;;
5704;SDS011;2877;48.238;11.160;2023-03-16T01:39:27;7.60;;;3.67;;
5704;SDS011;2877;48.238;11.160;2023-03-16T01:41:53;6.00;;;3.90;;
5704;SDS011;2877;48.238;11.160;2023-03-16T01:44:20;5.83;;;4.07;;
5704;SDS011;2877;48.238;11.160;2023-03-16T01:46:48;7.27;;;4.00;;
5704;SDS011;2877;48.238;11.160;2023-03-16T01:51:58;6.07;;;4.17;;
5704;SDS011;2877;48.238;11.160;2023-03-16T01:54:30;5.73;;;4.33;;
5704;SDS011;2877;48.238;11.160;2023-03-16T01:57:09;6.40;;;3.80;;
5704;SDS011;2877;48.238;11.160;2023-03-16T01:59:46;4.70;;;3.70;;
5704;SDS011;2877;48.238;11.160;2023-03-16T02:02:13;6.43;;;3.90;;
5704;SDS011;2877;48.238;11.160;2023-03-16T02:07:33;4.80;;;3.93;;
5704;SDS011;2877;48.238;11.160;2023-03-16T02:10:04;6.20;;;4.00;;
5704;SDS011;2877;48.238;11.160;2023-03-16T02:12:31;4.67;;;3.70;;
5704;SDS011;2877;48.238;11.160;2023-03-16T02:14:57;4.70;;;3.90;;
5704;SDS011;2877;48.238;11.160;2023-03-16T02:17:24;4.57;;;4.00;;
5704;SDS011;2877;48.238;11.160;2023-03-16T02:22:45;4.37;;;3.97;;
5704;SDS011;2877;48.238;11.160;2023-03-16T02:25:13;5.20;;;4.10;;
5704;SDS011;2877;48.238;11.160;2023-03-16T02:30:26;9.00;;;4.77;;
5704;SDS011;2877;48.238;11.160;2023-03-16T02:32:52;5.30;;;4.70;;
5704;SDS011;2877;48.238;11.160;2023-03-16T02:35:19;5.90;;;4.83;;
5704;SDS011;2877;48.238;11.160;2023-03-16T02:37:45;6.37;;;4.40;;
5704;SDS011;2877;48.238;11.160;2023-03-16T02:45:32;6.00;;;5.00;;
5704;SDS011;2877;48.238;11.160;2023-03-16T02:48:11;7.57;;;4.30;;
5704;SDS011;2877;48.238;11.160;2023-03-16T02:50:45;7.00;;;4.30;;
5704;SDS011;2877;48.238;11.160;2023-03-16T02:53:13;5.80;;;4.33;;
5704;SDS011;2877;48.238;11.160;2023-03-16T02:55:38;6.90;;;5.03;;
5704;SDS011;2877;48.238;11.160;2023-03-16T02:58:04;8.43;;;5.13;;
5704;SDS011;2877;48.238;11.160;2023-03-16T03:00:30;8.03;;;4.77;;
5704;SDS011;2877;48.238;11.160;2023-03-16T03:02:56;8.27;;;4.83;;
5704;SDS011;2877;48.238;11.160;2023-03-16T03:05:22;7.77;;;4.90;;
5704;SDS011;2877;48.238;11.160;2023-03-16T03:07:48;7.80;;;5.57;;
5704;SDS011;2877;48.238;11.160;2023-03-16T03:10:13;7.57;;;4.90;;
5704;SDS011;2877;48.238;11.160;2023-03-16T03:12:39;7.20;;;5.00;;
5704;SDS011;2877;48.238;11.160;2023-03-16T03:15:05;5.90;;;4.80;;
5704;SDS011;2877;48.238;11.160;2023-03-16T03:17:31;8.03;;;5.70;;
5704;SDS011;2877;48.238;11.160;2023-03-16T03:19:57;8.63;;;5.20;;
5704;SDS011;2877;48.238;11.160;2023-03-16T03:22:24;6.60;;;5.10;;
5704;SDS011;2877;48.238;11.160;2023-03-16T03:24:51;6.40;;;5.40;;
5704;SDS011;2877;48.238;11.160;2023-03-16T03:27:17;6.13;;;4.83;;
5704;SDS011;2877;48.238;11.160;2023-03-16T03:29:43;11.03;;;5.93;;
5704;SDS011;2877;48.238;11.160;2023-03-16T03:32:09;8.97;;;4.90;;
5704;SDS011;2877;48.238;11.160;2023-03-16T03:34:35;6.47;;;5.10;;
5704;SDS011;2877;48.238;11.160;2023-03-16T03:37:01;11.20;;;6.50;;
5704;SDS011;2877;48.238;11.160;2023-03-16T03:39:26;8.70;;;6.40;;
5704;SDS011;2877;48.238;11.160;2023-03-16T03:41:52;8.50;;;6.10;;
5704;SDS011;2877;48.238;11.160;2023-03-16T03:44:19;8.80;;;6.23;;
5704;SDS011;2877;48.238;11.160;2023-03-16T03:46:45;11.13;;;6.80;;
5704;SDS011;2877;48.238;11.160;2023-03-16T03:49:11;12.30;;;7.60;;
5704;SDS011;2877;48.238;11.160;2023-03-16T03:51:37;10.23;;;7.60;;
5704;SDS011;2877;48.238;11.160;2023-03-16T03:54:03;10.57;;;7.57;;
5704;SDS011;2877;48.238;11.160;2023-03-16T03:56:28;9.33;;;6.80;;
5704;SDS011;2877;48.238;11.160;2023-03-16T03:58:54;12.60;;;7.90;;
5704;SDS011;2877;48.238;11.160;2023-03-16T04:01:19;11.50;;;7.53;;
5704;SDS011;2877;48.238;11.160;2023-03-16T04:03:45;10.67;;;7.53;;
5704;SDS011;2877;48.238;11.160;2023-03-16T04:06:11;11.93;;;7.53;;
5704;SDS011;2877;48.238;11.160;2023-03-16T04:08:36;11.90;;;8.03;;
5704;SDS011;2877;48.238;11.160;2023-03-16T04:11:02;13.93;;;8.50;;
5704;SDS011;2877;48.238;11.160;2023-03-16T04:13:27;15.37;;;8.10;;
5704;SDS011;2877;48.238;11.160;2023-03-16T04:15:57;11.43;;;7.60;;
5704;SDS011;2877;48.238;11.160;2023-03-16T04:18:26;16.53;;;8.53;;
5704;SDS011;2877;48.238;11.160;2023-03-16T04:20:52;13.30;;;9.17;;
5704;SDS011;2877;48.238;11.160;2023-03-16T04:23:18;13.63;;;9.20;;
5704;SDS011;2877;48.238;11.160;2023-03-16T04:25:44;15.27;;;9.20;;
5704;SDS011;2877;48.238;11.160;2023-03-16T04:28:10;16.83;;;10.57;;
5704;SDS011;2877;48.238;11.160;2023-03-16T04:30:36;17.20;;;10.20;;
5704;SDS011;2877;48.238;11.160;2023-03-16T04:33:01;17.23;;;11.70;;
5704;SDS011;2877;48.238;11.160;2023-03-16T04:35:28;19.57;;;11.00;;
5704;SDS011;2877;48.238;11.160;2023-03-16T04:37:54;21.60;;;11.63;;
5704;SDS011;2877;48.238;11.160;2023-03-16T04:40:19;19.83;;;10.50;;
5704;SDS011;2877;48.238;11.160;2023-03-16T04:42:45;18.07;;;11.83;;
5704;SDS011;2877;48.238;11.160;2023-03-16T04:45:13;20.57;;;11.47;;
5704;SDS011;2877;48.238;11.160;2023-03-16T04:47:39;18.73;;;11.00;;
5704;SDS011;2877;48.238;11.160;2023-03-16T04:50:05;16.90;;;11.10;;
5704;SDS011;2877;48.238;11.160;2023-03-16T04:52:32;17.47;;;10.40;;
5704;SDS011;2877;48.238;11.160;2023-03-16T04:54:57;18.47;;;11.23;;
5704;SDS011;2877;48.238;11.160;2023-03-16T04:57:23;19.60;;;11.10;;
5704;SDS011;2877;48.238;11.160;2023-03-16T04:59:48;23.63;;;12.00;;
5704;SDS011;2877;48.238;11.160;2023-03-16T05:02:14;20.60;;;11.97;;
5704;SDS011;2877;48.238;11.160;2023-03-16T05:04:41;21.70;;;12.47;;
5704;SDS011;2877;48.238;11.160;2023-03-16T05:07:07;18.30;;;11.43;;
5704;SDS011;2877;48.238;11.160;2023-03-16T05:09:32;20.50;;;11.80;;
5704;SDS011;2877;48.238;11.160;2023-03-16T05:11:58;20.53;;;12.07;;
5704;SDS011;2877;48.238;11.160;2023-03-16T05:14:23;21.90;;;12.17;;
5704;SDS011;2877;48.238;11.160;2023-03-16T05:16:49;21.37;;;12.13;;
5704;SDS011;2877;48.238;11.160;2023-03-16T05:19:16;19.80;;;12.30;;
5704;SDS011;2877;48.238;11.160;2023-03-16T05:21:41;23.20;;;13.40;;
5704;SDS011;2877;48.238;11.160;2023-03-16T05:24:07;22.83;;;12.50;;
5704;SDS011;2877;48.238;11.160;2023-03-16T05:26:33;22.20;;;12.57;;
5704;SDS011;2877;48.238;11.160;2023-03-16T05:28:59;22.47;;;12.63;;
5704;SDS011;2877;48.238;11.160;2023-03-16T05:31:25;20.83;;;13.43;;
5704;SDS011;2877;48.238;11.160;2023-03-16T05:33:51;20.93;;;13.33;;
5704;SDS011;2877;48.238;11.160;2023-03-16T05:36:18;27.47;;;13.93;;
5704;SDS011;2877;48.238;11.160;2023-03-16T05:38:43;25.70;;;13.60;;
5704;SDS011;2877;48.238;11.160;2023-03-16T05:41:10;27.97;;;13.90;;
5704;SDS011;2877;48.238;11.160;2023-03-16T05:43:35;22.53;;;13.67;;
5704;SDS011;2877;48.238;11.160;2023-03-16T05:46:01;25.80;;;13.70;;
5704;SDS011;2877;48.238;11.160;2023-03-16T05:48:27;23.33;;;13.20;;
5704;SDS011;2877;48.238;11.160;2023-03-16T05:50:53;24.60;;;12.83;;
5704;SDS011;2877;48.238;11.160;2023-03-16T05:53:19;28.60;;;13.70;;
5704;SDS011;2877;48.238;11.160;2023-03-16T05:55:50;22.20;;;13.47;;
5704;SDS011;2877;48.238;11.160;2023-03-16T05:58:16;23.27;;;14.53;;
5704;SDS011;2877;48.238;11.160;2023-03-16T06:00:42;23.80;;;14.00;;
5704;SDS011;2877;48.238;11.160;2023-03-16T06:03:07;22.47;;;13.57;;
5704;SDS011;2877;48.238;11.160;2023-03-16T06:05:33;23.07;;;13.63;;
5704;SDS011;2877;48.238;11.160;2023-03-16T06:07:58;24.40;;;14.77;;
5704;SDS011;2877;48.238;11.160;2023-03-16T06:10:25;22.50;;;14.00;;
5704;SDS011;2877;48.238;11.160;2023-03-16T06:12:51;23.83;;;14.10;;
5704;SDS011;2877;48.238;11.160;2023-03-16T06:15:17;23.73;;;14.27;;
5704;SDS011;2877;48.238;11.160;2023-03-16T06:17:42;20.73;;;12.80;;
5704;SDS011;2877;48.238;11.160;2023-03-16T06:20:08;27.03;;;14.53;;
5704;SDS011;2877;48.238;11.160;2023-03-16T06:22:40;22.63;;;13.20;;
5704;SDS011;2877;48.238;11.160;2023-03-16T06:25:07;22.07;;;13.90;;
5704;SDS011;2877;48.238;11.160;2023-03-16T06:27:34;23.97;;;14.13;;
5704;SDS011;2877;48.238;11.160;2023-03-16T06:30:00;27.57;;;15.40;;
5704;SDS011;2877;48.238;11.160;2023-03-16T06:32:25;28.07;;;15.53;;
5704;SDS011;2877;48.238;11.160;2023-03-16T06:34:51;26.10;;;15.40;;
5704;SDS011;2877;48.238;11.160;2023-03-16T06:37:16;27.80;;;15.30;;
5704;SDS011;2877;48.238;11.160;2023-03-16T06:39:42;22.43;;;14.93;;
5704;SDS011;2877;48.238;11.160;2023-03-16T06:42:08;25.20;;;15.47;;
5704;SDS011;2877;48.238;11.160;2023-03-16T06:44:34;28.00;;;15.70;;
5704;SDS011;2877;48.238;11.160;2023-03-16T06:46:59;24.87;;;14.47;;
5704;SDS011;2877;48.238;11.160;2023-03-16T06:49:25;27.50;;;14.67;;
5704;SDS011;2877;48.238;11.160;2023-03-16T06:51:51;24.17;;;13.87;;
5704;SDS011;2877;48.238;11.160;2023-03-16T06:54:16;22.97;;;14.13;;
5704;SDS011;2877;48.238;11.160;2023-03-16T06:56:42;23.97;;;14.80;;
5704;SDS011;2877;48.238;11.160;2023-03-16T06:59:07;23.80;;;14.37;;
5704;SDS011;2877;48.238;11.160;2023-03-16T07:01:33;26.23;;;15.43;;
5704;SDS011;2877;48.238;11.160;2023-03-16T07:03:59;24.83;;;13.67;;
5704;SDS011;2877;48.238;11.160;2023-03-16T07:06:24;23.23;;;13.90;;
5704;SDS011;2877;48.238;11.160;2023-03-16T07:08:50;22.70;;;14.57;;
5704;SDS011;2877;48.238;11.160;2023-03-16T07:11:15;25.60;;;14.87;;
5704;SDS011;2877;48.238;11.160;2023-03-16T07:13:41;24.93;;;14.57;;
5704;SDS011;2877;48.238;11.160;2023-03-16T07:16:06;24.07;;;14.60;;
5704;SDS011;2877;48.238;11.160;2023-03-16T07:18:32;26.53;;;14.20;;
5704;SDS011;2877;48.238;11.160;2023-03-16T07:20:58;23.37;;;13.57;;
5704;SDS011;2877;48.238;11.160;2023-03-16T07:23:24;21.20;;;13.70;;
5704;SDS011;2877;48.238;11.160;2023-03-16T07:25:50;22.97;;;13.83;;
5704;SDS011;2877;48.238;11.160;2023-03-16T07:28:16;22.73;;;13.73;;
5704;SDS011;2877;48.238;11.160;2023-03-16T07:30:43;21.50;;;13.40;;
5704;SDS011;2877;48.238;11.160;2023-03-16T07:33:09;21.30;;;13.57;;
5704;SDS011;2877;48.238;11.160;2023-03-16T07:35:35;25.03;;;13.10;;
5704;SDS011;2877;48.238;11.160;2023-03-16T07:38:01;22.00;;;12.53;;
5704;SDS011;2877;48.238;11.160;2023-03-16T07:40:27;22.87;;;13.93;;
5704;SDS011;2877;48.238;11.160;2023-03-16T07:42:53;17.93;;;11.50;;
5704;SDS011;2877;48.238;11.160;2023-03-16T07:45:18;16.73;;;11.67;;
5704;SDS011;2877;48.238;11.160;2023-03-16T07:47:45;19.30;;;12.77;;
5704;SDS011;2877;48.238;11.160;2023-03-16T07:50:11;18.77;;;11.40;;
5704;SDS011;2877;48.238;11.160;2023-03-16T07:52:39;16.87;;;11.10;;
5704;SDS011;2877;48.238;11.160;2023-03-16T07:55:04;18.70;;;10.90;;
5704;SDS011;2877;48.238;11.160;2023-03-16T07:57:30;20.00;;;11.70;;
5704;SDS011;2877;48.238;11.160;2023-03-16T07:59:56;17.60;;;11.57;;
5704;SDS011;2877;48.238;11.160;2023-03-16T08:02:23;17.33;;;11.63;;
5704;SDS011;2877;48.238;11.160;2023-03-16T08:04:48;17.47;;;10.57;;
5704;SDS011;2877;48.238;11.160;2023-03-16T08:07:14;16.17;;;11.03;;
5704;SDS011;2877;48.238;11.160;2023-03-16T08:09:40;16.40;;;11.80;;
5704;SDS011;2877;48.238;11.160;2023-03-16T08:12:06;17.03;;;10.70;;
5704;SDS011;2877;48.238;11.160;2023-03-16T08:14:33;13.90;;;10.20;;
5704;SDS011;2877;48.238;11.160;2023-03-16T08:17:00;15.43;;;9.93;;
5704;SDS011;2877;48.238;11.160;2023-03-16T08:19:26;13.60;;;10.00;;
5704;SDS011;2877;48.238;11.160;2023-03-16T08:21:52;13.50;;;10.10;;
5704;SDS011;2877;48.238;11.160;2023-03-16T08:24:17;12.63;;;9.37;;
5704;SDS011;2877;48.238;11.160;2023-03-16T08:26:44;14.60;;;10.03;;
5704;SDS011;2877;48.238;11.160;2023-03-16T08:29:09;14.07;;;9.97;;
5704;SDS011;2877;48.238;11.160;2023-03-16T08:31:35;11.37;;;8.90;;
5704;SDS011;2877;48.238;11.160;2023-03-16T08:34:01;14.03;;;9.73;;
5704;SDS011;2877;48.238;11.160;2023-03-16T08:36:27;12.23;;;8.50;;
5704;SDS011;2877;48.238;11.160;2023-03-16T08:38:54;11.87;;;8.23;;
5704;SDS011;2877;48.238;11.160;2023-03-16T08:41:19;13.03;;;8.03;;
5704;SDS011;2877;48.238;11.160;2023-03-16T08:43:45;11.20;;;8.17;;
5704;SDS011;2877;48.238;11.160;2023-03-16T08:46:11;11.77;;;8.17;;
5704;SDS011;2877;48.238;11.160;2023-03-16T08:48:38;11.83;;;7.83;;
5704;SDS011;2877;48.238;11.160;2023-03-16T08:51:05;10.90;;;7.77;;
5704;SDS011;2877;48.238;11.160;2023-03-16T08:53:31;11.00;;;7.47;;
5704;SDS011;2877;48.238;11.160;2023-03-16T08:56:00;8.97;;;6.80;;
5704;SDS011;2877;48.238;11.160;2023-03-16T08:58:28;14.20;;;8.30;;
5704;SDS011;2877;48.238;11.160;2023-03-16T09:00:56;10.67;;;8.03;;
5704;SDS011;2877;48.238;11.160;2023-03-16T09:03:23;9.07;;;6.70;;
5704;SDS011;2877;48.238;11.160;2023-03-16T09:05:49;10.03;;;7.10;;
5704;SDS011;2877;48.238;11.160;2023-03-16T09:08:15;10.87;;;7.77;;
5704;SDS011;2877;48.238;11.160;2023-03-16T09:10:41;11.20;;;7.80;;
5704;SDS011;2877;48.238;11.160;2023-03-16T09:13:07;10.57;;;7.60;;
5704;SDS011;2877;48.238;11.160;2023-03-16T09:15:32;11.07;;;7.60;;
5704;SDS011;2877;48.238;11.160;2023-03-16T09:17:59;11.70;;;7.23;;
5704;SDS011;2877;48.238;11.160;2023-03-16T09:20:27;9.00;;;7.17;;
5704;SDS011;2877;48.238;11.160;2023-03-16T09:22:55;14.03;;;6.80;;
5704;SDS011;2877;48.238;11.160;2023-03-16T09:25:21;10.10;;;7.80;;
5704;SDS011;2877;48.238;11.160;2023-03-16T09:27:48;11.80;;;8.17;;
5704;SDS011;2877;48.238;11.160;2023-03-16T09:30:13;11.10;;;7.87;;
5704;SDS011;2877;48.238;11.160;2023-03-16T09:32:40;9.70;;;7.13;;
5704;SDS011;2877;48.238;11.160;2023-03-16T09:35:06;10.27;;;7.80;;
5704;SDS011;2877;48.238;11.160;2023-03-16T09:37:32;13.73;;;8.33;;
5704;SDS011;2877;48.238;11.160;2023-03-16T09:39:59;10.60;;;8.23;;
5704;SDS011;2877;48.238;11.160;2023-03-16T09:42:35;8.47;;;7.30;;
5704;SDS011;2877;48.238;11.160;2023-03-16T09:45:14;14.13;;;7.10;;
5704;SDS011;2877;48.238;11.160;2023-03-16T09:47:48;7.10;;;5.97;;
5704;SDS011;2877;48.238;11.160;2023-03-16T09:50:21;8.63;;;6.30;;
5704;SDS011;2877;48.238;11.160;2023-03-16T09:52:56;10.27;;;7.50;;
5704;SDS011;2877;48.238;11.160;2023-03-16T09:55:34;9.63;;;6.50;;
5704;SDS011;2877;48.238;11.160;2023-03-16T09:58:03;8.20;;;6.37;;
5704;SDS011;2877;48.238;11.160;2023-03-16T10:00:35;6.80;;;6.03;;
5704;SDS011;2877;48.238;11.160;2023-03-16T10:03:10;8.50;;;6.30;;
5704;SDS011;2877;48.238;11.160;2023-03-16T10:05:40;8.07;;;6.00;;
5704;SDS011;2877;48.238;11.160;2023-03-16T10:08:07;9.27;;;7.20;;
5704;SDS011;2877;48.238;11.160;2023-03-16T10:16:09;9.17;;;7.60;;
5704;SDS011;2877;48.238;11.160;2023-03-16T10:18:43;8.23;;;6.37;;
5704;SDS011;2877;48.238;11.160;2023-03-16T10:21:12;7.77;;;6.50;;
5704;SDS011;2877;48.238;11.160;2023-03-16T10:23:42;9.73;;;7.00;;
5704;SDS011;2877;48.238;11.160;2023-03-16T10:26:11;9.50;;;7.13;;
5704;SDS011;2877;48.238;11.160;2023-03-16T10:28:42;9.40;;;7.43;;
5704;SDS011;2877;48.238;11.160;2023-03-16T10:31:09;7.70;;;6.07;;
5704;SDS011;2877;48.238;11.160;2023-03-16T10:33:36;9.37;;;6.90;;
5704;SDS011;2877;48.238;11.160;2023-03-16T10:38:47;7.37;;;6.30;;
5704;SDS011;2877;48.238;11.160;2023-03-16T10:41:23;9.67;;;6.57;;
5704;SDS011;2877;48.238;11.160;2023-03-16T10:43:56;8.37;;;6.37;;
5704;SDS011;2877;48.238;11.160;2023-03-16T10:49:04;7.87;;;6.17;;
5704;SDS011;2877;48.238;11.160;2023-03-16T10:51:41;8.60;;;6.17;;
5704;SDS011;2877;48.238;11.160;2023-03-16T10:54:08;14.20;;;7.13;;
5704;SDS011;2877;48.238;11.160;2023-03-16T10:56:40;8.00;;;6.50;;
5704;SDS011;2877;48.238;11.160;2023-03-16T10:59:12;9.40;;;6.33;;
5704;SDS011;2877;48.238;11.160;2023-03-16T11:02:07;7.50;;;6.60;;
5704;SDS011;2877;48.238;11.160;2023-03-16T11:04:40;7.00;;;5.73;;
5704;SDS011;2877;48.238;11.160;2023-03-16T11:07:06;8.13;;;6.43;;
5704;SDS011;2877;48.238;11.160;2023-03-16T11:09:33;7.10;;;5.80;;
5704;SDS011;2877;48.238;11.160;2023-03-16T11:15:11;7.90;;;6.10;;
5704;SDS011;2877;48.238;11.160;2023-03-16T11:17:38;8.03;;;5.33;;
5704;SDS011;2877;48.238;11.160;2023-03-16T11:20:09;7.00;;;5.37;;
5704;SDS011;2877;48.238;11.160;2023-03-16T11:22:42;5.17;;;4.67;;
5704;SDS011;2877;48.238;11.160;2023-03-16T11:25:13;7.37;;;5.43;;
5704;SDS011;2877;48.238;11.160;2023-03-16T11:27:52;11.87;;;5.60;;
5704;SDS011;2877;48.238;11.160;2023-03-16T11:33:20;5.90;;;4.90;;
5704;SDS011;2877;48.238;11.160;2023-03-16T11:38:42;6.13;;;5.20;;
5704;SDS011;2877;48.238;11.160;2023-03-16T11:44:04;7.67;;;5.47;;
5704;SDS011;2877;48.238;11.160;2023-03-16T11:46:41;6.93;;;5.20;;
5704;SDS011;2877;48.238;11.160;2023-03-16T11:49:40;9.50;;;5.33;;
5704;SDS011;2877;48.238;11.160;2023-03-16T11:52:26;7.40;;;5.37;;
5704;SDS011;2877;48.238;11.160;2023-03-16T12:15:07;5.97;;;5.00;;
5704;SDS011;2877;48.238;11.160;2023-03-16T12:17:40;6.60;;;5.80;;
5704;SDS011;2877;48.238;11.160;2023-03-16T12:20:18;6.80;;;5.00;;
5704;SDS011;2877;48.238;11.160;2023-03-16T12:23:03;5.63;;;4.77;;
5704;SDS011;2877;48.238;11.160;2023-03-16T12:25:38;6.30;;;4.67;;
5704;SDS011;2877;48.238;11.160;2023-03-16T12:28:10;5.23;;;4.60;;
5704;SDS011;2877;48.238;11.160;2023-03-16T12:33:13;6.83;;;4.70;;
5704;SDS011;2877;48.238;11.160;2023-03-16T12:36:14;5.63;;;5.00;;
5704;SDS011;2877;48.238;11.160;2023-03-16T12:39:01;8.03;;;5.47;;
5704;SDS011;2877;48.238;11.160;2023-03-16T12:44:27;7.03;;;4.70;;
5704;SDS011;2877;48.238;11.160;2023-03-16T12:49:51;6.00;;;5.13;;
5704;SDS011;2877;48.238;11.160;2023-03-16T12:52:16;5.80;;;4.63;;
5704;SDS011;2877;48.238;11.160;2023-03-16T12:54:52;7.53;;;4.60;;
5704;SDS011;2877;48.238;11.160;2023-03-16T12:57:30;4.43;;;4.00;;
5704;SDS011;2877;48.238;11.160;2023-03-16T12:59:57;4.90;;;4.43;;
5704;SDS011;2877;48.238;11.160;2023-03-16T13:02:28;5.53;;;4.60;;
5704;SDS011;2877;48.238;11.160;2023-03-16T13:05:00;7.80;;;4.77;;
5704;SDS011;2877;48.238;11.160;2023-03-16T13:07:33;6.40;;;5.17;;
5704;SDS011;2877;48.238;11.160;2023-03-16T13:12:34;5.73;;;4.57;;
5704;SDS011;2877;48.238;11.160;2023-03-16T13:15:47;4.30;;;3.70;;
5704;SDS011;2877;48.238;11.160;2023-03-16T13:18:33;3.80;;;3.50;;
5704;SDS011;2877;48.238;11.160;2023-03-16T13:23:28;5.53;;;4.10;;
5704;SDS011;2877;48.238;11.160;2023-03-16T13:26:22;6.00;;;4.43;;
5704;SDS011;2877;48.238;11.160;2023-03-16T13:29:02;5.47;;;3.47;;
5704;SDS011;2877;48.238;11.160;2023-03-16T13:31:44;5.97;;;3.47;;
5704;SDS011;2877;48.238;11.160;2023-03-16T13:34:11;4.23;;;3.70;;
5704;SDS011;2877;48.238;11.160;2023-03-16T13:36:39;6.50;;;4.30;;
5704;SDS011;2877;48.238;11.160;2023-03-16T13:39:18;6.40;;;4.53;;
5704;SDS011;2877;48.238;11.160;2023-03-16T13:42:02;4.20;;;3.57;;
5704;SDS011;2877;48.238;11.160;2023-03-16T13:44:43;4.53;;;4.10;;
5704;SDS011;2877;48.238;11.160;2023-03-16T13:47:12;4.30;;;3.90;;
5704;SDS011;2877;48.238;11.160;2023-03-16T13:49:49;4.33;;;3.87;;
5704;SDS011;2877;48.238;11.160;2023-03-16T13:52:27;10.70;;;4.50;;
5704;SDS011;2877;48.238;11.160;2023-03-16T13:54:58;4.57;;;4.17;;
5704;SDS011;2877;48.238;11.160;2023-03-16T13:57:29;4.27;;;3.67;;
5704;SDS011;2877;48.238;11.160;2023-03-16T14:02:42;9.00;;;3.80;;
5704;SDS011;2877;48.238;11.160;2023-03-16T14:05:09;5.40;;;3.47;;
5704;SDS011;2877;48.238;11.160;2023-03-16T14:07:36;4.27;;;3.40;;
5704;SDS011;2877;48.238;11.160;2023-03-16T14:10:03;4.20;;;3.80;;
5704;SDS011;2877;48.238;11.160;2023-03-16T14:12:30;4.00;;;3.50;;
5704;SDS011;2877;48.238;11.160;2023-03-16T14:14:55;3.30;;;3.00;;
5704;SDS011;2877;48.238;11.160;2023-03-16T14:17:21;6.33;;;3.60;;
5704;SDS011;2877;48.238;11.160;2023-03-16T14:19:49;3.23;;;2.93;;
5704;SDS011;2877;48.238;11.160;2023-03-16T14:22:24;7.80;;;3.87;;
5704;SDS011;2877;48.238;11.160;2023-03-16T14:25:04;25.67;;;9.53;;
5704;SDS011;2877;48.238;11.160;2023-03-16T14:30:24;3.93;;;3.50;;
5704;SDS011;2877;48.238;11.160;2023-03-16T14:35:24;4.00;;;3.60;;
5704;SDS011;2877;48.238;11.160;2023-03-16T14:37:54;3.43;;;3.13;;
5704;SDS011;2877;48.238;11.160;2023-03-16T14:42:52;9.63;;;4.10;;
5704;SDS011;2877;48.238;11.160;2023-03-16T14:45:20;3.90;;;3.50;;
5704;SDS011;2877;48.238;11.160;2023-03-16T14:47:46;4.13;;;3.37;;
5704;SDS011;2877;48.238;11.160;2023-03-16T14:50:19;4.00;;;3.30;;
5704;SDS011;2877;48.238;11.160;2023-03-16T14:52:48;4.50;;;3.80;;
5704;SDS011;2877;48.238;11.160;2023-03-16T14:55:15;3.77;;;3.30;;
5704;SDS011;2877;48.238;11.160;2023-03-16T14:57:43;5.73;;;3.53;;
5704;SDS011;2877;48.238;11.160;2023-03-16T15:00:11;3.13;;;2.73;;
5704;SDS011;2877;48.238;11.160;2023-03-16T15:02:39;5.93;;;3.40;;
5704;SDS011;2877;48.238;11.160;2023-03-16T15:05:09;4.20;;;3.80;;
5704;SDS011;2877;48.238;11.160;2023-03-16T15:07:43;4.03;;;3.63;;
5704;SDS011;2877;48.238;11.160;2023-03-16T15:12:37;3.80;;;3.40;;
5704;SDS011;2877;48.238;11.160;2023-03-16T15:15:09;4.00;;;3.60;;
5704;SDS011;2877;48.238;11.160;2023-03-16T15:17:40;5.20;;;3.60;;
5704;SDS011;2877;48.238;11.160;2023-03-16T15:20:12;3.83;;;3.53;;
5704;SDS011;2877;48.238;11.160;2023-03-16T15:22:39;3.60;;;3.13;;
5704;SDS011;2877;48.238;11.160;2023-03-16T15:31:15;3.60;;;3.30;;
5704;SDS011;2877;48.238;11.160;2023-03-16T15:33:41;5.13;;;3.50;;
5704;SDS011;2877;48.238;11.160;2023-03-16T15:36:16;4.00;;;3.60;;
5704;SDS011;2877;48.238;11.160;2023-03-16T15:38:48;3.07;;;2.87;;
5704;SDS011;2877;48.238;11.160;2023-03-16T15:41:16;3.13;;;2.93;;
5704;SDS011;2877;48.238;11.160;2023-03-16T15:43:42;6.93;;;3.00;;
5704;SDS011;2877;48.238;11.160;2023-03-16T15:46:09;4.00;;;3.20;;
5704;SDS011;2877;48.238;11.160;2023-03-16T15:48:36;6.03;;;3.00;;
5704;SDS011;2877;48.238;11.160;2023-03-16T15:51:12;3.20;;;2.90;;
5704;SDS011;2877;48.238;11.160;2023-03-16T15:53:42;2.90;;;2.60;;
5704;SDS011;2877;48.238;11.160;2023-03-16T15:56:14;3.13;;;2.93;;
5704;SDS011;2877;48.238;11.160;2023-03-16T15:58:42;2.97;;;2.57;;
5704;SDS011;2877;48.238;11.160;2023-03-16T16:01:19;3.70;;;2.73;;
5704;SDS011;2877;48.238;11.160;2023-03-16T16:03:46;3.47;;;2.80;;
5704;SDS011;2877;48.238;11.160;2023-03-16T16:06:12;2.90;;;2.70;;
5704;SDS011;2877;48.238;11.160;2023-03-16T16:08:38;3.63;;;2.73;;
5704;SDS011;2877;48.238;11.160;2023-03-16T16:11:04;4.97;;;3.07;;
5704;SDS011;2877;48.238;11.160;2023-03-16T16:13:36;3.40;;;3.10;;
5704;SDS011;2877;48.238;11.160;2023-03-16T16:16:02;3.80;;;2.67;;
5704;SDS011;2877;48.238;11.160;2023-03-16T16:18:31;2.80;;;2.60;;
5704;SDS011;2877;48.238;11.160;2023-03-16T16:21:01;3.20;;;2.90;;
5704;SDS011;2877;48.238;11.160;2023-03-16T16:23:28;3.20;;;2.90;;
5704;SDS011;2877;48.238;11.160;2023-03-16T16:25:55;3.50;;;2.93;;
5704;SDS011;2877;48.238;11.160;2023-03-16T16:28:24;3.13;;;2.80;;
5704;SDS011;2877;48.238;11.160;2023-03-16T16:30:53;3.30;;;3.00;;
5704;SDS011;2877;48.238;11.160;2023-03-16T16:33:39;3.20;;;2.90;;
5704;SDS011;2877;48.238;11.160;2023-03-16T16:36:05;3.03;;;2.77;;